sensor_id;sensor_type;location;lat;lon;timestamp;P1;durP1;ratioP1;P2;durP2;ratioP2
21266;SDS011;10791;53.108;18.326;2022-11-23T00:04:11;81.83;;;30.63;;
21266;SDS011;10791;53.108;18.326;2022-11-23T00:09:15;83.60;;;29.63;;
21266;SDS011;10791;53.108;18.326;2022-11-23T00:14:18;74.83;;;29.70;;
21266;SDS011;10791;53.108;18.326;2022-11-23T00:19:21;81.77;;;30.23;;
21266;SDS011;10791;53.108;18.326;2022-11-23T00:24:24;66.87;;;29.43;;
21266;SDS011;10791;53.108;18.326;2022-11-23T00:29:28;82.43;;;32.50;;
21266;SDS011;10791;53.108;18.326;2022-11-23T00:34:31;69.93;;;26.90;;
21266;SDS011;10791;53.108;18.326;2022-11-23T00:39:35;84.70;;;30.33;;
21266;SDS011;10791;53.108;18.326;2022-11-23T00:44:38;84.83;;;28.10;;
21266;SDS011;10791;53.108;18.326;2022-11-23T00:49:41;83.33;;;28.67;;
21266;SDS011;10791;53.108;18.326;2022-11-23T00:54:44;82.63;;;28.33;;
21266;SDS011;10791;53.108;18.326;2022-11-23T00:59:48;76.37;;;29.33;;
21266;SDS011;10791;53.108;18.326;2022-11-23T01:04:51;83.10;;;30.70;;
21266;SDS011;10791;53.108;18.326;2022-11-23T01:09:55;80.23;;;26.87;;
21266;SDS011;10791;53.108;18.326;2022-11-23T01:14:59;83.83;;;29.13;;
21266;SDS011;10791;53.108;18.326;2022-11-23T01:20:02;97.03;;;30.53;;
21266;SDS011;10791;53.108;18.326;2022-11-23T01:25:06;76.43;;;27.67;;
21266;SDS011;10791;53.108;18.326;2022-11-23T01:30:10;75.67;;;25.37;;
21266;SDS011;10791;53.108;18.326;2022-11-23T01:35:14;76.93;;;27.80;;
21266;SDS011;10791;53.108;18.326;2022-11-23T01:40:17;73.13;;;26.07;;
21266;SDS011;10791;53.108;18.326;2022-11-23T01:50:34;67.50;;;24.33;;
21266;SDS011;10791;53.108;18.326;2022-11-23T01:55:39;86.17;;;27.37;;
21266;SDS011;10791;53.108;18.326;2022-11-23T02:00:44;85.07;;;25.03;;
21266;SDS011;10791;53.108;18.326;2022-11-23T02:05:49;73.93;;;24.13;;
21266;SDS011;10791;53.108;18.326;2022-11-23T02:11:01;68.90;;;24.73;;
21266;SDS011;10791;53.108;18.326;2022-11-23T02:16:05;70.67;;;24.83;;
21266;SDS011;10791;53.108;18.326;2022-11-23T02:21:08;90.30;;;27.90;;
21266;SDS011;10791;53.108;18.326;2022-11-23T02:26:13;77.87;;;27.93;;
21266;SDS011;10791;53.108;18.326;2022-11-23T02:31:37;86.03;;;26.87;;
21266;SDS011;10791;53.108;18.326;2022-11-23T02:41:46;73.20;;;24.93;;
21266;SDS011;10791;53.108;18.326;2022-11-23T02:46:58;85.07;;;24.90;;
21266;SDS011;10791;53.108;18.326;2022-11-23T02:52:02;67.03;;;23.87;;
21266;SDS011;10791;53.108;18.326;2022-11-23T02:57:06;85.47;;;28.20;;
21266;SDS011;10791;53.108;18.326;2022-11-23T03:02:09;92.70;;;26.20;;
21266;SDS011;10791;53.108;18.326;2022-11-23T03:07:13;68.10;;;23.53;;
21266;SDS011;10791;53.108;18.326;2022-11-23T03:12:16;81.30;;;23.43;;
21266;SDS011;10791;53.108;18.326;2022-11-23T03:17:19;75.07;;;23.60;;
21266;SDS011;10791;53.108;18.326;2022-11-23T03:22:23;69.47;;;23.53;;
21266;SDS011;10791;53.108;18.326;2022-11-23T03:27:26;68.73;;;23.30;;
21266;SDS011;10791;53.108;18.326;2022-11-23T03:32:30;80.50;;;23.83;;
21266;SDS011;10791;53.108;18.326;2022-11-23T03:37:34;71.47;;;24.27;;
21266;SDS011;10791;53.108;18.326;2022-11-23T03:42:38;69.23;;;20.53;;
21266;SDS011;10791;53.108;18.326;2022-11-23T03:47:42;75.30;;;23.63;;
21266;SDS011;10791;53.108;18.326;2022-11-23T03:52:49;72.23;;;25.73;;
21266;SDS011;10791;53.108;18.326;2022-11-23T03:57:52;69.90;;;23.93;;
21266;SDS011;10791;53.108;18.326;2022-11-23T04:02:56;73.80;;;24.67;;
21266;SDS011;10791;53.108;18.326;2022-11-23T04:08:00;72.40;;;25.07;;
21266;SDS011;10791;53.108;18.326;2022-11-23T04:13:03;83.50;;;28.80;;
21266;SDS011;10791;53.108;18.326;2022-11-23T04:18:06;74.57;;;25.10;;
21266;SDS011;10791;53.108;18.326;2022-11-23T04:23:10;67.97;;;23.60;;
21266;SDS011;10791;53.108;18.326;2022-11-23T04:28:14;72.33;;;23.90;;
21266;SDS011;10791;53.108;18.326;2022-11-23T04:33:17;69.47;;;22.97;;
21266;SDS011;10791;53.108;18.326;2022-11-23T04:38:20;79.30;;;22.67;;
21266;SDS011;10791;53.108;18.326;2022-11-23T04:43:24;69.47;;;23.53;;
21266;SDS011;10791;53.108;18.326;2022-11-23T04:48:27;70.67;;;23.90;;
21266;SDS011;10791;53.108;18.326;2022-11-23T04:53:30;67.63;;;23.30;;
21266;SDS011;10791;53.108;18.326;2022-11-23T04:58:33;71.10;;;23.47;;
21266;SDS011;10791;53.108;18.326;2022-11-23T05:03:37;60.07;;;20.77;;
21266;SDS011;10791;53.108;18.326;2022-11-23T05:08:41;62.37;;;21.83;;
21266;SDS011;10791;53.108;18.326;2022-11-23T05:13:44;63.73;;;22.63;;
21266;SDS011;10791;53.108;18.326;2022-11-23T05:18:47;74.20;;;22.67;;
21266;SDS011;10791;53.108;18.326;2022-11-23T05:23:51;67.90;;;22.17;;
21266;SDS011;10791;53.108;18.326;2022-11-23T05:28:54;58.77;;;20.17;;
21266;SDS011;10791;53.108;18.326;2022-11-23T05:33:57;58.30;;;21.10;;
21266;SDS011;10791;53.108;18.326;2022-11-23T05:39:00;59.50;;;21.50;;
21266;SDS011;10791;53.108;18.326;2022-11-23T05:44:03;71.63;;;22.33;;
21266;SDS011;10791;53.108;18.326;2022-11-23T05:49:08;63.33;;;22.40;;
21266;SDS011;10791;53.108;18.326;2022-11-23T05:54:11;73.70;;;24.77;;
21266;SDS011;10791;53.108;18.326;2022-11-23T05:59:15;66.33;;;25.30;;
21266;SDS011;10791;53.108;18.326;2022-11-23T06:04:18;70.30;;;23.50;;
21266;SDS011;10791;53.108;18.326;2022-11-23T06:09:21;71.40;;;23.93;;
21266;SDS011;10791;53.108;18.326;2022-11-23T06:14:25;64.50;;;21.20;;
21266;SDS011;10791;53.108;18.326;2022-11-23T06:19:28;69.93;;;21.17;;
21266;SDS011;10791;53.108;18.326;2022-11-23T06:24:32;74.63;;;22.63;;
21266;SDS011;10791;53.108;18.326;2022-11-23T06:29:36;62.27;;;20.57;;
21266;SDS011;10791;53.108;18.326;2022-11-23T06:34:40;61.50;;;22.17;;
21266;SDS011;10791;53.108;18.326;2022-11-23T06:39:43;64.40;;;21.87;;
21266;SDS011;10791;53.108;18.326;2022-11-23T06:44:47;68.23;;;22.40;;
21266;SDS011;10791;53.108;18.326;2022-11-23T06:49:50;73.77;;;24.13;;
21266;SDS011;10791;53.108;18.326;2022-11-23T06:54:54;55.07;;;19.60;;
21266;SDS011;10791;53.108;18.326;2022-11-23T06:59:57;67.03;;;21.20;;
21266;SDS011;10791;53.108;18.326;2022-11-23T07:05:00;68.17;;;23.60;;
21266;SDS011;10791;53.108;18.326;2022-11-23T07:10:04;78.07;;;23.83;;
21266;SDS011;10791;53.108;18.326;2022-11-23T07:15:09;68.00;;;23.83;;
21266;SDS011;10791;53.108;18.326;2022-11-23T07:20:13;58.90;;;22.03;;
21266;SDS011;10791;53.108;18.326;2022-11-23T07:25:17;62.67;;;22.13;;
21266;SDS011;10791;53.108;18.326;2022-11-23T07:30:21;61.37;;;21.43;;
21266;SDS011;10791;53.108;18.326;2022-11-23T07:35:30;71.43;;;25.67;;
21266;SDS011;10791;53.108;18.326;2022-11-23T07:40:37;64.83;;;22.83;;
21266;SDS011;10791;53.108;18.326;2022-11-23T07:45:42;62.77;;;23.00;;
21266;SDS011;10791;53.108;18.326;2022-11-23T07:50:53;74.97;;;24.00;;
21266;SDS011;10791;53.108;18.326;2022-11-23T07:55:58;59.73;;;22.97;;
21266;SDS011;10791;53.108;18.326;2022-11-23T08:01:14;84.07;;;26.63;;
21266;SDS011;10791;53.108;18.326;2022-11-23T08:13:01;57.80;;;20.13;;
21266;SDS011;10791;53.108;18.326;2022-11-23T08:18:06;60.50;;;20.00;;
21266;SDS011;10791;53.108;18.326;2022-11-23T08:23:11;61.90;;;22.00;;
21266;SDS011;10791;53.108;18.326;2022-11-23T08:28:14;61.87;;;23.43;;
21266;SDS011;10791;53.108;18.326;2022-11-23T08:33:18;61.33;;;21.93;;
21266;SDS011;10791;53.108;18.326;2022-11-23T08:38:21;58.20;;;19.30;;
21266;SDS011;10791;53.108;18.326;2022-11-23T08:43:25;76.67;;;21.70;;
21266;SDS011;10791;53.108;18.326;2022-11-23T08:48:29;71.93;;;23.67;;
21266;SDS011;10791;53.108;18.326;2022-11-23T08:53:32;67.43;;;22.80;;
21266;SDS011;10791;53.108;18.326;2022-11-23T08:58:36;62.93;;;22.07;;
21266;SDS011;10791;53.108;18.326;2022-11-23T09:03:39;64.80;;;22.53;;
21266;SDS011;10791;53.108;18.326;2022-11-23T09:08:43;53.20;;;21.37;;
21266;SDS011;10791;53.108;18.326;2022-11-23T09:13:46;62.20;;;23.30;;
21266;SDS011;10791;53.108;18.326;2022-11-23T09:18:53;62.53;;;22.53;;
21266;SDS011;10791;53.108;18.326;2022-11-23T09:23:58;67.53;;;23.30;;
21266;SDS011;10791;53.108;18.326;2022-11-23T09:29:02;59.23;;;20.30;;
21266;SDS011;10791;53.108;18.326;2022-11-23T09:34:06;64.57;;;22.77;;
21266;SDS011;10791;53.108;18.326;2022-11-23T09:39:11;65.53;;;23.13;;
21266;SDS011;10791;53.108;18.326;2022-11-23T09:49:21;79.70;;;25.23;;
21266;SDS011;10791;53.108;18.326;2022-11-23T09:54:35;73.07;;;25.40;;
21266;SDS011;10791;53.108;18.326;2022-11-23T09:59:42;71.37;;;23.70;;
21266;SDS011;10791;53.108;18.326;2022-11-23T10:04:52;65.63;;;22.43;;
21266;SDS011;10791;53.108;18.326;2022-11-23T10:10:07;66.37;;;21.57;;
21266;SDS011;10791;53.108;18.326;2022-11-23T10:15:23;55.57;;;20.03;;
21266;SDS011;10791;53.108;18.326;2022-11-23T10:20:36;73.03;;;25.17;;
21266;SDS011;10791;53.108;18.326;2022-11-23T10:26:03;75.93;;;22.53;;
21266;SDS011;10791;53.108;18.326;2022-11-23T10:31:12;64.07;;;21.03;;
21266;SDS011;10791;53.108;18.326;2022-11-23T10:36:18;69.20;;;21.50;;
21266;SDS011;10791;53.108;18.326;2022-11-23T10:41:21;70.00;;;22.40;;
21266;SDS011;10791;53.108;18.326;2022-11-23T10:51:38;62.20;;;23.53;;
21266;SDS011;10791;53.108;18.326;2022-11-23T10:56:46;75.93;;;22.87;;
21266;SDS011;10791;53.108;18.326;2022-11-23T11:01:58;61.73;;;23.27;;
21266;SDS011;10791;53.108;18.326;2022-11-23T11:12:28;57.37;;;22.27;;
21266;SDS011;10791;53.108;18.326;2022-11-23T11:17:34;52.63;;;20.63;;
21266;SDS011;10791;53.108;18.326;2022-11-23T11:22:39;55.23;;;19.67;;
21266;SDS011;10791;53.108;18.326;2022-11-23T11:27:51;63.00;;;20.80;;
21266;SDS011;10791;53.108;18.326;2022-11-23T11:33:09;58.33;;;20.47;;
21266;SDS011;10791;53.108;18.326;2022-11-23T11:38:21;52.23;;;18.87;;
21266;SDS011;10791;53.108;18.326;2022-11-23T11:49:33;56.53;;;21.80;;
21266;SDS011;10791;53.108;18.326;2022-11-23T11:54:35;57.73;;;19.70;;
21266;SDS011;10791;53.108;18.326;2022-11-23T11:59:45;61.87;;;22.30;;
21266;SDS011;10791;53.108;18.326;2022-11-23T12:10:17;60.40;;;22.63;;
21266;SDS011;10791;53.108;18.326;2022-11-23T12:15:41;49.10;;;19.27;;
21266;SDS011;10791;53.108;18.326;2022-11-23T12:21:03;53.03;;;20.07;;
21266;SDS011;10791;53.108;18.326;2022-11-23T12:26:22;50.40;;;18.80;;
21266;SDS011;10791;53.108;18.326;2022-11-23T12:52:38;73.43;;;26.30;;
21266;SDS011;10791;53.108;18.326;2022-11-23T13:25:01;46.27;;;19.57;;
21266;SDS011;10791;53.108;18.326;2022-11-23T13:35:55;54.53;;;21.10;;
21266;SDS011;10791;53.108;18.326;2022-11-23T13:46:40;50.70;;;18.73;;
21266;SDS011;10791;53.108;18.326;2022-11-23T13:51:43;53.40;;;20.47;;
21266;SDS011;10791;53.108;18.326;2022-11-23T13:57:24;48.87;;;19.33;;
21266;SDS011;10791;53.108;18.326;2022-11-23T14:02:28;47.87;;;19.80;;
21266;SDS011;10791;53.108;18.326;2022-11-23T14:07:38;48.43;;;15.43;;
21266;SDS011;10791;53.108;18.326;2022-11-23T14:29:21;46.37;;;18.80;;
21266;SDS011;10791;53.108;18.326;2022-11-23T14:35:18;44.87;;;18.57;;
21266;SDS011;10791;53.108;18.326;2022-11-23T14:45:46;51.97;;;21.20;;
21266;SDS011;10791;53.108;18.326;2022-11-23T14:51:09;63.20;;;25.87;;
21266;SDS011;10791;53.108;18.326;2022-11-23T15:01:31;66.13;;;25.77;;
21266;SDS011;10791;53.108;18.326;2022-11-23T15:06:37;62.37;;;26.57;;
21266;SDS011;10791;53.108;18.326;2022-11-23T15:12:03;64.57;;;25.97;;
21266;SDS011;10791;53.108;18.326;2022-11-23T15:17:19;63.10;;;24.10;;
21266;SDS011;10791;53.108;18.326;2022-11-23T15:22:42;66.27;;;25.23;;
21266;SDS011;10791;53.108;18.326;2022-11-23T15:28:13;67.77;;;25.90;;
21266;SDS011;10791;53.108;18.326;2022-11-23T15:33:20;58.30;;;25.93;;
21266;SDS011;10791;53.108;18.326;2022-11-23T15:38:24;59.27;;;26.37;;
21266;SDS011;10791;53.108;18.326;2022-11-23T15:43:29;59.67;;;25.83;;
21266;SDS011;10791;53.108;18.326;2022-11-23T15:48:33;57.63;;;25.00;;
21266;SDS011;10791;53.108;18.326;2022-11-23T15:58:51;50.43;;;23.00;;
21266;SDS011;10791;53.108;18.326;2022-11-23T16:03:59;58.23;;;26.23;;
21266;SDS011;10791;53.108;18.326;2022-11-23T16:14:56;56.13;;;25.27;;
21266;SDS011;10791;53.108;18.326;2022-11-23T16:20:20;56.27;;;23.03;;
21266;SDS011;10791;53.108;18.326;2022-11-23T16:25:32;60.73;;;24.17;;
21266;SDS011;10791;53.108;18.326;2022-11-23T16:30:38;55.77;;;23.63;;
21266;SDS011;10791;53.108;18.326;2022-11-23T16:35:45;58.53;;;23.77;;
21266;SDS011;10791;53.108;18.326;2022-11-23T16:40:50;74.40;;;27.80;;
21266;SDS011;10791;53.108;18.326;2022-11-23T16:45:54;71.43;;;27.40;;
21266;SDS011;10791;53.108;18.326;2022-11-23T16:50:57;63.23;;;24.70;;
21266;SDS011;10791;53.108;18.326;2022-11-23T16:56:02;82.80;;;32.00;;
21266;SDS011;10791;53.108;18.326;2022-11-23T17:01:07;73.80;;;27.73;;
21266;SDS011;10791;53.108;18.326;2022-11-23T17:06:22;67.03;;;27.67;;
21266;SDS011;10791;53.108;18.326;2022-11-23T17:11:29;61.70;;;28.47;;
21266;SDS011;10791;53.108;18.326;2022-11-23T17:16:33;61.43;;;25.83;;
21266;SDS011;10791;53.108;18.326;2022-11-23T17:21:37;72.97;;;30.37;;
21266;SDS011;10791;53.108;18.326;2022-11-23T17:26:41;62.33;;;27.80;;
21266;SDS011;10791;53.108;18.326;2022-11-23T17:31:48;75.60;;;28.00;;
21266;SDS011;10791;53.108;18.326;2022-11-23T17:36:52;73.77;;;30.43;;
21266;SDS011;10791;53.108;18.326;2022-11-23T17:41:56;70.37;;;26.27;;
21266;SDS011;10791;53.108;18.326;2022-11-23T17:47:13;65.73;;;28.37;;
21266;SDS011;10791;53.108;18.326;2022-11-23T17:52:28;64.13;;;25.97;;
21266;SDS011;10791;53.108;18.326;2022-11-23T17:57:32;58.30;;;25.83;;
21266;SDS011;10791;53.108;18.326;2022-11-23T18:02:37;64.93;;;26.63;;
21266;SDS011;10791;53.108;18.326;2022-11-23T18:07:41;55.80;;;23.17;;
21266;SDS011;10791;53.108;18.326;2022-11-23T18:12:50;84.67;;;30.60;;
21266;SDS011;10791;53.108;18.326;2022-11-23T18:17:54;78.40;;;30.37;;
21266;SDS011;10791;53.108;18.326;2022-11-23T18:23:05;80.70;;;30.90;;
21266;SDS011;10791;53.108;18.326;2022-11-23T18:28:11;83.10;;;31.40;;
21266;SDS011;10791;53.108;18.326;2022-11-23T18:33:21;83.03;;;31.57;;
21266;SDS011;10791;53.108;18.326;2022-11-23T18:38:27;90.67;;;33.13;;
21266;SDS011;10791;53.108;18.326;2022-11-23T18:43:38;83.60;;;29.37;;
21266;SDS011;10791;53.108;18.326;2022-11-23T18:48:43;97.30;;;33.03;;
21266;SDS011;10791;53.108;18.326;2022-11-23T18:53:51;68.87;;;25.37;;
21266;SDS011;10791;53.108;18.326;2022-11-23T18:58:58;79.77;;;27.40;;
21266;SDS011;10791;53.108;18.326;2022-11-23T19:04:04;70.03;;;25.30;;
21266;SDS011;10791;53.108;18.326;2022-11-23T19:09:09;66.97;;;29.77;;
21266;SDS011;10791;53.108;18.326;2022-11-23T19:14:17;59.73;;;24.87;;
21266;SDS011;10791;53.108;18.326;2022-11-23T19:19:22;79.03;;;30.37;;
21266;SDS011;10791;53.108;18.326;2022-11-23T19:24:28;62.57;;;25.30;;
21266;SDS011;10791;53.108;18.326;2022-11-23T19:29:33;75.87;;;29.03;;
21266;SDS011;10791;53.108;18.326;2022-11-23T19:34:38;62.17;;;23.03;;
21266;SDS011;10791;53.108;18.326;2022-11-23T19:39:43;77.70;;;28.93;;
21266;SDS011;10791;53.108;18.326;2022-11-23T19:44:50;60.87;;;25.53;;
21266;SDS011;10791;53.108;18.326;2022-11-23T19:49:55;60.33;;;24.80;;
21266;SDS011;10791;53.108;18.326;2022-11-23T19:55:01;67.53;;;25.63;;
21266;SDS011;10791;53.108;18.326;2022-11-23T20:00:06;73.10;;;27.33;;
21266;SDS011;10791;53.108;18.326;2022-11-23T20:05:11;64.27;;;24.60;;
21266;SDS011;10791;53.108;18.326;2022-11-23T20:10:16;72.23;;;28.07;;
21266;SDS011;10791;53.108;18.326;2022-11-23T20:15:21;75.57;;;29.40;;
21266;SDS011;10791;53.108;18.326;2022-11-23T20:20:26;63.40;;;23.87;;
21266;SDS011;10791;53.108;18.326;2022-11-23T20:25:35;66.03;;;26.50;;
21266;SDS011;10791;53.108;18.326;2022-11-23T20:30:43;62.80;;;25.93;;
21266;SDS011;10791;53.108;18.326;2022-11-23T20:35:48;53.87;;;23.57;;
21266;SDS011;10791;53.108;18.326;2022-11-23T20:40:53;61.30;;;24.60;;
21266;SDS011;10791;53.108;18.326;2022-11-23T20:45:58;56.80;;;22.73;;
21266;SDS011;10791;53.108;18.326;2022-11-23T20:51:05;59.67;;;24.73;;
21266;SDS011;10791;53.108;18.326;2022-11-23T20:56:12;58.30;;;23.43;;
21266;SDS011;10791;53.108;18.326;2022-11-23T21:01:19;76.17;;;24.90;;
21266;SDS011;10791;53.108;18.326;2022-11-23T21:06:27;51.93;;;18.97;;
21266;SDS011;10791;53.108;18.326;2022-11-23T21:11:39;62.90;;;23.07;;
21266;SDS011;10791;53.108;18.326;2022-11-23T21:17:05;54.40;;;19.40;;
21266;SDS011;10791;53.108;18.326;2022-11-23T21:22:10;58.60;;;23.67;;
21266;SDS011;10791;53.108;18.326;2022-11-23T21:27:18;55.73;;;22.77;;
21266;SDS011;10791;53.108;18.326;2022-11-23T21:32:26;63.00;;;23.50;;
21266;SDS011;10791;53.108;18.326;2022-11-23T21:37:30;58.40;;;23.20;;
21266;SDS011;10791;53.108;18.326;2022-11-23T21:42:33;63.53;;;25.37;;
21266;SDS011;10791;53.108;18.326;2022-11-23T21:47:37;63.97;;;25.27;;
21266;SDS011;10791;53.108;18.326;2022-11-23T21:52:40;59.03;;;22.50;;
21266;SDS011;10791;53.108;18.326;2022-11-23T21:57:44;58.40;;;23.50;;
21266;SDS011;10791;53.108;18.326;2022-11-23T22:02:47;62.83;;;23.20;;
21266;SDS011;10791;53.108;18.326;2022-11-23T22:07:51;65.27;;;24.47;;
21266;SDS011;10791;53.108;18.326;2022-11-23T22:13:15;56.40;;;23.80;;
21266;SDS011;10791;53.108;18.326;2022-11-23T22:18:19;61.60;;;22.47;;
21266;SDS011;10791;53.108;18.326;2022-11-23T22:23:23;58.37;;;20.90;;
21266;SDS011;10791;53.108;18.326;2022-11-23T22:28:31;58.33;;;21.90;;
21266;SDS011;10791;53.108;18.326;2022-11-23T22:33:36;55.27;;;21.87;;
21266;SDS011;10791;53.108;18.326;2022-11-23T22:38:41;40.43;;;15.87;;
21266;SDS011;10791;53.108;18.326;2022-11-23T22:43:44;61.07;;;21.27;;
21266;SDS011;10791;53.108;18.326;2022-11-23T22:48:49;53.43;;;20.53;;
21266;SDS011;10791;53.108;18.326;2022-11-23T22:53:54;68.17;;;25.57;;
21266;SDS011;10791;53.108;18.326;2022-11-23T22:58:59;67.37;;;23.27;;
21266;SDS011;10791;53.108;18.326;2022-11-23T23:04:03;54.30;;;21.70;;
21266;SDS011;10791;53.108;18.326;2022-11-23T23:09:07;65.53;;;23.47;;
21266;SDS011;10791;53.108;18.326;2022-11-23T23:14:11;69.27;;;23.57;;
21266;SDS011;10791;53.108;18.326;2022-11-23T23:19:15;58.77;;;19.73;;
21266;SDS011;10791;53.108;18.326;2022-11-23T23:24:18;66.73;;;21.80;;
21266;SDS011;10791;53.108;18.326;2022-11-23T23:29:22;58.40;;;21.73;;
21266;SDS011;10791;53.108;18.326;2022-11-23T23:34:25;77.33;;;24.93;;
21266;SDS011;10791;53.108;18.326;2022-11-23T23:39:29;68.50;;;22.50;;
21266;SDS011;10791;53.108;18.326;2022-11-23T23:44:33;63.37;;;22.20;;
21266;SDS011;10791;53.108;18.326;2022-11-23T23:49:38;59.70;;;21.10;;
21266;SDS011;10791;53.108;18.326;2022-11-23T23:54:42;69.30;;;24.13;;
21266;SDS011;10791;53.108;18.326;2022-11-23T23:59:45;62.00;;;21.17;;
